Terminal Aerodrome Forecast
Issued by NWS Fort Wayne, IN

Home | Current Version | Previous Version | Text Only | Print | Product List | Glossary On
Versions: 1 2 3 4 5 6 7 8 9 10 11 12 13 14 15 16 17 18 19 20
000
FTUS43 KIWX 211100
TAFFWA
TAF
KFWA 211120Z 2112/2212 23013G20KT P6SM SCT090
     FM211500 26027G39KT P6SM BKN060
     FM220100 25010KT P6SM SCT070=

USA.gov is the U.S. government's official web portal to all federal, state and local government web resources and services.